sensor_id;sensor_type;location;lat;lon;timestamp;temperature;humidity
11087;DHT22;5597;47.588;9.642;2023-04-24T00:00:05;10.40;99.90
11087;DHT22;5597;47.588;9.642;2023-04-24T00:02:32;10.40;99.90
11087;DHT22;5597;47.588;9.642;2023-04-24T00:04:58;10.40;99.90
11087;DHT22;5597;47.588;9.642;2023-04-24T00:07:28;10.40;99.90
11087;DHT22;5597;47.588;9.642;2023-04-24T00:09:54;10.40;99.90
11087;DHT22;5597;47.588;9.642;2023-04-24T00:12:20;10.40;99.90
11087;DHT22;5597;47.588;9.642;2023-04-24T00:14:45;10.30;99.90
11087;DHT22;5597;47.588;9.642;2023-04-24T00:17:11;10.30;99.90
11087;DHT22;5597;47.588;9.642;2023-04-24T00:19:37;10.30;99.90
11087;DHT22;5597;47.588;9.642;2023-04-24T00:22:02;10.30;99.90
11087;DHT22;5597;47.588;9.642;2023-04-24T00:24:28;10.30;99.90
11087;DHT22;5597;47.588;9.642;2023-04-24T00:26:54;10.20;99.90
11087;DHT22;5597;47.588;9.642;2023-04-24T00:29:20;10.20;99.90
11087;DHT22;5597;47.588;9.642;2023-04-24T00:31:45;10.20;99.90
11087;DHT22;5597;47.588;9.642;2023-04-24T00:34:11;10.20;99.90
11087;DHT22;5597;47.588;9.642;2023-04-24T00:36:37;10.20;99.90
11087;DHT22;5597;47.588;9.642;2023-04-24T00:39:03;10.20;99.90
11087;DHT22;5597;47.588;9.642;2023-04-24T00:41:29;10.10;99.90
11087;DHT22;5597;47.588;9.642;2023-04-24T00:43:55;10.10;99.90
11087;DHT22;5597;47.588;9.642;2023-04-24T00:46:21;10.10;99.90
11087;DHT22;5597;47.588;9.642;2023-04-24T00:48:47;10.10;99.90
11087;DHT22;5597;47.588;9.642;2023-04-24T00:51:13;10.10;99.90
11087;DHT22;5597;47.588;9.642;2023-04-24T00:53:38;10.10;99.90
11087;DHT22;5597;47.588;9.642;2023-04-24T00:56:04;10.10;99.90
11087;DHT22;5597;47.588;9.642;2023-04-24T00:58:30;10.10;99.90
11087;DHT22;5597;47.588;9.642;2023-04-24T01:00:57;10.20;99.90
11087;DHT22;5597;47.588;9.642;2023-04-24T01:03:28;10.20;99.90
11087;DHT22;5597;47.588;9.642;2023-04-24T01:05:55;10.20;99.90
11087;DHT22;5597;47.588;9.642;2023-04-24T01:08:23;10.20;99.90
11087;DHT22;5597;47.588;9.642;2023-04-24T01:10:51;10.20;99.90
11087;DHT22;5597;47.588;9.642;2023-04-24T01:13:18;10.20;99.90
11087;DHT22;5597;47.588;9.642;2023-04-24T01:15:44;10.20;99.90
11087;DHT22;5597;47.588;9.642;2023-04-24T01:18:10;10.20;99.90
11087;DHT22;5597;47.588;9.642;2023-04-24T01:20:37;10.20;99.90
11087;DHT22;5597;47.588;9.642;2023-04-24T01:23:05;10.20;99.90
11087;DHT22;5597;47.588;9.642;2023-04-24T01:25:31;10.20;99.90
11087;DHT22;5597;47.588;9.642;2023-04-24T01:27:57;10.20;99.90
11087;DHT22;5597;47.588;9.642;2023-04-24T01:30:23;10.10;99.90
11087;DHT22;5597;47.588;9.642;2023-04-24T01:32:49;10.10;99.90
11087;DHT22;5597;47.588;9.642;2023-04-24T01:35:15;10.10;99.90
11087;DHT22;5597;47.588;9.642;2023-04-24T01:37:40;10.10;99.90
11087;DHT22;5597;47.588;9.642;2023-04-24T01:40:07;10.00;99.90
11087;DHT22;5597;47.588;9.642;2023-04-24T01:42:33;10.00;99.90
11087;DHT22;5597;47.588;9.642;2023-04-24T01:44:59;9.90;99.90
11087;DHT22;5597;47.588;9.642;2023-04-24T01:47:26;9.90;99.90
11087;DHT22;5597;47.588;9.642;2023-04-24T01:49:52;9.90;99.90
11087;DHT22;5597;47.588;9.642;2023-04-24T01:52:17;9.90;99.90
11087;DHT22;5597;47.588;9.642;2023-04-24T01:54:44;9.80;99.90
11087;DHT22;5597;47.588;9.642;2023-04-24T01:57:10;9.80;99.90
11087;DHT22;5597;47.588;9.642;2023-04-24T01:59:35;9.80;99.90
11087;DHT22;5597;47.588;9.642;2023-04-24T02:02:02;9.80;99.90
11087;DHT22;5597;47.588;9.642;2023-04-24T02:04:28;9.80;99.90
11087;DHT22;5597;47.588;9.642;2023-04-24T02:06:54;9.80;99.90
11087;DHT22;5597;47.588;9.642;2023-04-24T02:09:19;9.80;99.90
11087;DHT22;5597;47.588;9.642;2023-04-24T02:11:45;9.80;99.90
11087;DHT22;5597;47.588;9.642;2023-04-24T02:14:11;9.70;99.90
11087;DHT22;5597;47.588;9.642;2023-04-24T02:16:36;9.70;99.90
11087;DHT22;5597;47.588;9.642;2023-04-24T02:19:02;9.70;99.90
11087;DHT22;5597;47.588;9.642;2023-04-24T02:21:28;9.70;99.90
11087;DHT22;5597;47.588;9.642;2023-04-24T02:23:54;9.70;99.90
11087;DHT22;5597;47.588;9.642;2023-04-24T02:26:20;9.60;99.90
11087;DHT22;5597;47.588;9.642;2023-04-24T02:28:46;9.70;99.90
11087;DHT22;5597;47.588;9.642;2023-04-24T02:31:11;9.60;99.90
11087;DHT22;5597;47.588;9.642;2023-04-24T02:33:37;9.60;99.90
11087;DHT22;5597;47.588;9.642;2023-04-24T02:36:02;9.60;99.90
11087;DHT22;5597;47.588;9.642;2023-04-24T02:38:28;9.60;99.90
11087;DHT22;5597;47.588;9.642;2023-04-24T02:40:54;9.60;99.90
11087;DHT22;5597;47.588;9.642;2023-04-24T02:43:20;9.60;99.90
11087;DHT22;5597;47.588;9.642;2023-04-24T02:45:46;9.60;99.90
11087;DHT22;5597;47.588;9.642;2023-04-24T02:48:11;9.60;99.90
11087;DHT22;5597;47.588;9.642;2023-04-24T02:50:37;9.50;99.90
11087;DHT22;5597;47.588;9.642;2023-04-24T02:53:03;9.60;99.90
11087;DHT22;5597;47.588;9.642;2023-04-24T02:55:28;9.50;99.90
11087;DHT22;5597;47.588;9.642;2023-04-24T02:57:54;9.50;99.90
11087;DHT22;5597;47.588;9.642;2023-04-24T03:00:20;9.50;99.90
11087;DHT22;5597;47.588;9.642;2023-04-24T03:02:46;9.50;99.90
11087;DHT22;5597;47.588;9.642;2023-04-24T03:05:11;9.60;99.90
11087;DHT22;5597;47.588;9.642;2023-04-24T03:07:37;9.50;99.90
11087;DHT22;5597;47.588;9.642;2023-04-24T03:10:04;9.50;99.90
11087;DHT22;5597;47.588;9.642;2023-04-24T03:12:31;9.50;99.90
11087;DHT22;5597;47.588;9.642;2023-04-24T03:14:56;9.50;99.90
11087;DHT22;5597;47.588;9.642;2023-04-24T03:17:22;9.50;99.90
11087;DHT22;5597;47.588;9.642;2023-04-24T03:19:47;9.50;99.90
11087;DHT22;5597;47.588;9.642;2023-04-24T03:22:13;9.50;99.90
11087;DHT22;5597;47.588;9.642;2023-04-24T03:24:39;9.50;99.90
11087;DHT22;5597;47.588;9.642;2023-04-24T03:27:04;9.50;99.90
11087;DHT22;5597;47.588;9.642;2023-04-24T03:29:30;9.60;99.90
11087;DHT22;5597;47.588;9.642;2023-04-24T03:31:55;9.60;99.90
11087;DHT22;5597;47.588;9.642;2023-04-24T03:34:21;9.60;99.90
11087;DHT22;5597;47.588;9.642;2023-04-24T03:36:46;9.60;99.90
11087;DHT22;5597;47.588;9.642;2023-04-24T03:39:15;9.60;99.90
11087;DHT22;5597;47.588;9.642;2023-04-24T03:41:41;9.60;99.90
11087;DHT22;5597;47.588;9.642;2023-04-24T03:44:06;9.60;99.90
11087;DHT22;5597;47.588;9.642;2023-04-24T03:46:32;9.60;99.90
11087;DHT22;5597;47.588;9.642;2023-04-24T03:48:57;9.60;99.90
11087;DHT22;5597;47.588;9.642;2023-04-24T03:51:23;9.60;99.90
11087;DHT22;5597;47.588;9.642;2023-04-24T03:53:49;9.50;99.90
11087;DHT22;5597;47.588;9.642;2023-04-24T03:56:15;9.50;99.90
11087;DHT22;5597;47.588;9.642;2023-04-24T03:58:41;9.50;99.90
11087;DHT22;5597;47.588;9.642;2023-04-24T04:01:07;9.50;99.90
11087;DHT22;5597;47.588;9.642;2023-04-24T04:03:33;9.50;99.90
11087;DHT22;5597;47.588;9.642;2023-04-24T04:05:58;9.50;99.90
11087;DHT22;5597;47.588;9.642;2023-04-24T04:08:24;9.40;99.90
11087;DHT22;5597;47.588;9.642;2023-04-24T04:10:50;9.40;99.90
11087;DHT22;5597;47.588;9.642;2023-04-24T04:13:15;9.40;99.90
11087;DHT22;5597;47.588;9.642;2023-04-24T04:15:41;9.40;99.90
11087;DHT22;5597;47.588;9.642;2023-04-24T04:18:07;9.40;99.90
11087;DHT22;5597;47.588;9.642;2023-04-24T04:20:32;9.40;99.90
11087;DHT22;5597;47.588;9.642;2023-04-24T04:22:58;9.40;99.90
11087;DHT22;5597;47.588;9.642;2023-04-24T04:25:23;9.40;99.90
11087;DHT22;5597;47.588;9.642;2023-04-24T04:27:49;9.40;99.90
11087;DHT22;5597;47.588;9.642;2023-04-24T04:30:16;9.40;99.90
11087;DHT22;5597;47.588;9.642;2023-04-24T04:32:43;9.30;99.90
11087;DHT22;5597;47.588;9.642;2023-04-24T04:35:09;9.30;99.90
11087;DHT22;5597;47.588;9.642;2023-04-24T04:37:35;9.30;99.90
11087;DHT22;5597;47.588;9.642;2023-04-24T04:40:02;9.30;99.90
11087;DHT22;5597;47.588;9.642;2023-04-24T04:42:37;9.30;99.90
11087;DHT22;5597;47.588;9.642;2023-04-24T04:45:06;9.30;99.90
11087;DHT22;5597;47.588;9.642;2023-04-24T04:47:34;9.30;99.90
11087;DHT22;5597;47.588;9.642;2023-04-24T04:50:00;9.30;99.90
11087;DHT22;5597;47.588;9.642;2023-04-24T04:52:25;9.40;99.90
11087;DHT22;5597;47.588;9.642;2023-04-24T04:54:52;9.40;99.90
11087;DHT22;5597;47.588;9.642;2023-04-24T04:57:17;9.40;99.90
11087;DHT22;5597;47.588;9.642;2023-04-24T04:59:43;9.40;99.90
11087;DHT22;5597;47.588;9.642;2023-04-24T05:02:09;9.40;99.90
11087;DHT22;5597;47.588;9.642;2023-04-24T05:04:34;9.40;99.90
11087;DHT22;5597;47.588;9.642;2023-04-24T05:07:00;9.50;99.90
11087;DHT22;5597;47.588;9.642;2023-04-24T05:09:26;9.50;99.90
11087;DHT22;5597;47.588;9.642;2023-04-24T05:11:53;9.50;99.90
11087;DHT22;5597;47.588;9.642;2023-04-24T05:14:18;9.50;99.90
11087;DHT22;5597;47.588;9.642;2023-04-24T05:16:44;9.50;99.90
11087;DHT22;5597;47.588;9.642;2023-04-24T05:19:10;9.50;99.90
11087;DHT22;5597;47.588;9.642;2023-04-24T05:21:37;9.50;99.90
11087;DHT22;5597;47.588;9.642;2023-04-24T05:24:04;9.50;99.90
11087;DHT22;5597;47.588;9.642;2023-04-24T05:26:30;9.50;99.90
11087;DHT22;5597;47.588;9.642;2023-04-24T05:28:56;9.60;99.90
11087;DHT22;5597;47.588;9.642;2023-04-24T05:31:21;9.60;99.90
11087;DHT22;5597;47.588;9.642;2023-04-24T05:33:47;9.60;99.90
11087;DHT22;5597;47.588;9.642;2023-04-24T05:36:12;9.60;99.90
11087;DHT22;5597;47.588;9.642;2023-04-24T05:38:38;9.60;99.90
11087;DHT22;5597;47.588;9.642;2023-04-24T05:41:04;9.50;99.90
11087;DHT22;5597;47.588;9.642;2023-04-24T05:43:29;9.60;99.90
11087;DHT22;5597;47.588;9.642;2023-04-24T05:45:55;9.50;99.90
11087;DHT22;5597;47.588;9.642;2023-04-24T05:48:21;9.60;99.90
11087;DHT22;5597;47.588;9.642;2023-04-24T05:50:48;9.60;99.90
11087;DHT22;5597;47.588;9.642;2023-04-24T05:53:13;9.50;99.90
11087;DHT22;5597;47.588;9.642;2023-04-24T05:55:39;9.50;99.90
11087;DHT22;5597;47.588;9.642;2023-04-24T05:58:05;9.50;99.90
11087;DHT22;5597;47.588;9.642;2023-04-24T06:00:31;9.50;99.90
11087;DHT22;5597;47.588;9.642;2023-04-24T06:02:57;9.50;99.90
11087;DHT22;5597;47.588;9.642;2023-04-24T06:05:24;9.50;99.90
11087;DHT22;5597;47.588;9.642;2023-04-24T06:07:49;9.50;99.90
11087;DHT22;5597;47.588;9.642;2023-04-24T06:10:15;9.50;99.90
11087;DHT22;5597;47.588;9.642;2023-04-24T06:12:41;9.60;99.90
11087;DHT22;5597;47.588;9.642;2023-04-24T06:15:07;9.60;99.90
11087;DHT22;5597;47.588;9.642;2023-04-24T06:17:33;9.60;99.90
11087;DHT22;5597;47.588;9.642;2023-04-24T06:19:59;9.60;99.90
11087;DHT22;5597;47.588;9.642;2023-04-24T06:22:24;9.60;99.90
11087;DHT22;5597;47.588;9.642;2023-04-24T06:24:50;9.60;99.90
11087;DHT22;5597;47.588;9.642;2023-04-24T06:27:15;9.60;99.90
11087;DHT22;5597;47.588;9.642;2023-04-24T06:29:41;9.60;99.90
11087;DHT22;5597;47.588;9.642;2023-04-24T06:32:06;9.50;99.90
11087;DHT22;5597;47.588;9.642;2023-04-24T06:34:33;9.60;99.90
11087;DHT22;5597;47.588;9.642;2023-04-24T06:36:59;9.50;99.90
11087;DHT22;5597;47.588;9.642;2023-04-24T06:39:25;9.60;99.90
11087;DHT22;5597;47.588;9.642;2023-04-24T06:41:51;9.60;99.90
11087;DHT22;5597;47.588;9.642;2023-04-24T06:44:16;9.60;99.90
11087;DHT22;5597;47.588;9.642;2023-04-24T06:46:42;9.70;99.90
11087;DHT22;5597;47.588;9.642;2023-04-24T06:49:08;9.70;99.90
11087;DHT22;5597;47.588;9.642;2023-04-24T06:51:33;9.80;99.90
11087;DHT22;5597;47.588;9.642;2023-04-24T06:53:59;9.80;99.90
11087;DHT22;5597;47.588;9.642;2023-04-24T06:56:25;9.90;99.90
11087;DHT22;5597;47.588;9.642;2023-04-24T06:58:51;9.90;99.90
11087;DHT22;5597;47.588;9.642;2023-04-24T07:01:17;10.00;99.90
11087;DHT22;5597;47.588;9.642;2023-04-24T07:03:43;10.00;99.90
11087;DHT22;5597;47.588;9.642;2023-04-24T07:06:09;10.00;99.90
11087;DHT22;5597;47.588;9.642;2023-04-24T07:08:36;10.00;99.90
11087;DHT22;5597;47.588;9.642;2023-04-24T07:11:02;10.00;99.90
11087;DHT22;5597;47.588;9.642;2023-04-24T07:13:28;10.00;99.90
11087;DHT22;5597;47.588;9.642;2023-04-24T07:15:54;10.10;99.90
11087;DHT22;5597;47.588;9.642;2023-04-24T07:18:21;10.10;99.90
11087;DHT22;5597;47.588;9.642;2023-04-24T07:20:47;10.20;99.90
11087;DHT22;5597;47.588;9.642;2023-04-24T07:23:12;10.30;99.90
11087;DHT22;5597;47.588;9.642;2023-04-24T07:25:38;10.40;99.90
11087;DHT22;5597;47.588;9.642;2023-04-24T07:28:05;10.40;99.90
11087;DHT22;5597;47.588;9.642;2023-04-24T07:30:31;10.40;99.90
11087;DHT22;5597;47.588;9.642;2023-04-24T07:32:58;10.50;99.90
11087;DHT22;5597;47.588;9.642;2023-04-24T07:35:24;10.60;99.90
11087;DHT22;5597;47.588;9.642;2023-04-24T07:37:51;10.70;99.90
11087;DHT22;5597;47.588;9.642;2023-04-24T07:40:18;10.80;99.90
11087;DHT22;5597;47.588;9.642;2023-04-24T07:42:43;10.90;99.90
11087;DHT22;5597;47.588;9.642;2023-04-24T07:45:09;11.00;99.90
11087;DHT22;5597;47.588;9.642;2023-04-24T07:47:35;11.00;99.90
11087;DHT22;5597;47.588;9.642;2023-04-24T07:50:02;11.10;99.90
11087;DHT22;5597;47.588;9.642;2023-04-24T07:52:28;11.20;99.90
11087;DHT22;5597;47.588;9.642;2023-04-24T07:54:54;11.20;99.90
11087;DHT22;5597;47.588;9.642;2023-04-24T07:57:24;11.20;99.90
11087;DHT22;5597;47.588;9.642;2023-04-24T07:59:50;11.30;99.90
11087;DHT22;5597;47.588;9.642;2023-04-24T08:02:16;11.40;99.90
11087;DHT22;5597;47.588;9.642;2023-04-24T08:04:41;11.40;99.90
11087;DHT22;5597;47.588;9.642;2023-04-24T08:07:07;11.60;99.90
11087;DHT22;5597;47.588;9.642;2023-04-24T08:09:33;12.00;99.90
11087;DHT22;5597;47.588;9.642;2023-04-24T08:11:59;12.30;99.90
11087;DHT22;5597;47.588;9.642;2023-04-24T08:14:25;12.70;99.90
11087;DHT22;5597;47.588;9.642;2023-04-24T08:16:52;12.90;99.90
11087;DHT22;5597;47.588;9.642;2023-04-24T08:19:17;13.20;99.90
11087;DHT22;5597;47.588;9.642;2023-04-24T08:21:43;13.40;99.90
11087;DHT22;5597;47.588;9.642;2023-04-24T08:24:08;13.60;99.90
11087;DHT22;5597;47.588;9.642;2023-04-24T08:26:34;13.60;99.90
11087;DHT22;5597;47.588;9.642;2023-04-24T08:29:00;13.60;99.90
11087;DHT22;5597;47.588;9.642;2023-04-24T08:31:26;13.60;99.90
11087;DHT22;5597;47.588;9.642;2023-04-24T08:33:52;13.60;99.90
11087;DHT22;5597;47.588;9.642;2023-04-24T08:36:17;13.60;99.90
11087;DHT22;5597;47.588;9.642;2023-04-24T08:38:43;13.60;99.90
11087;DHT22;5597;47.588;9.642;2023-04-24T08:41:09;13.50;99.90
11087;DHT22;5597;47.588;9.642;2023-04-24T08:43:35;13.30;99.90
11087;DHT22;5597;47.588;9.642;2023-04-24T08:46:04;13.20;99.90
11087;DHT22;5597;47.588;9.642;2023-04-24T08:48:30;13.20;99.90
11087;DHT22;5597;47.588;9.642;2023-04-24T08:50:57;13.10;99.90
11087;DHT22;5597;47.588;9.642;2023-04-24T08:53:24;13.00;99.90
11087;DHT22;5597;47.588;9.642;2023-04-24T08:55:51;12.90;99.90
11087;DHT22;5597;47.588;9.642;2023-04-24T08:58:19;12.90;99.90
11087;DHT22;5597;47.588;9.642;2023-04-24T09:00:45;12.70;99.90
11087;DHT22;5597;47.588;9.642;2023-04-24T09:03:16;12.50;99.90
11087;DHT22;5597;47.588;9.642;2023-04-24T09:05:47;12.30;99.90
11087;DHT22;5597;47.588;9.642;2023-04-24T09:08:13;11.90;99.90
11087;DHT22;5597;47.588;9.642;2023-04-24T09:10:40;11.50;99.90
11087;DHT22;5597;47.588;9.642;2023-04-24T09:13:06;11.20;99.90
11087;DHT22;5597;47.588;9.642;2023-04-24T09:15:34;10.90;99.90
11087;DHT22;5597;47.588;9.642;2023-04-24T09:18:01;10.70;99.90
11087;DHT22;5597;47.588;9.642;2023-04-24T09:20:27;10.50;99.90
11087;DHT22;5597;47.588;9.642;2023-04-24T09:22:57;10.40;99.90
11087;DHT22;5597;47.588;9.642;2023-04-24T09:25:22;10.20;99.90
11087;DHT22;5597;47.588;9.642;2023-04-24T09:27:53;10.20;99.90
11087;DHT22;5597;47.588;9.642;2023-04-24T09:30:23;10.10;99.90
11087;DHT22;5597;47.588;9.642;2023-04-24T09:32:48;10.00;99.90
11087;DHT22;5597;47.588;9.642;2023-04-24T09:35:15;10.00;99.90
11087;DHT22;5597;47.588;9.642;2023-04-24T09:37:43;10.00;99.90
11087;DHT22;5597;47.588;9.642;2023-04-24T09:40:16;10.10;99.90
11087;DHT22;5597;47.588;9.642;2023-04-24T09:42:53;10.20;99.90
11087;DHT22;5597;47.588;9.642;2023-04-24T09:45:18;10.30;99.90
11087;DHT22;5597;47.588;9.642;2023-04-24T09:47:44;10.50;99.90
11087;DHT22;5597;47.588;9.642;2023-04-24T09:50:12;10.60;99.90
11087;DHT22;5597;47.588;9.642;2023-04-24T09:52:42;10.60;99.90
11087;DHT22;5597;47.588;9.642;2023-04-24T09:55:18;10.70;99.90
11087;DHT22;5597;47.588;9.642;2023-04-24T09:57:51;10.70;99.90
11087;DHT22;5597;47.588;9.642;2023-04-24T10:00:25;10.80;99.90
11087;DHT22;5597;47.588;9.642;2023-04-24T10:05:35;10.80;99.90
11087;DHT22;5597;47.588;9.642;2023-04-24T10:08:05;10.80;99.90
11087;DHT22;5597;47.588;9.642;2023-04-24T10:10:32;10.80;99.90
11087;DHT22;5597;47.588;9.642;2023-04-24T10:12:58;10.80;99.90
11087;DHT22;5597;47.588;9.642;2023-04-24T10:15:24;10.90;99.90
11087;DHT22;5597;47.588;9.642;2023-04-24T10:17:51;10.90;99.90
11087;DHT22;5597;47.588;9.642;2023-04-24T10:20:21;10.90;99.90
11087;DHT22;5597;47.588;9.642;2023-04-24T10:22:52;10.90;99.90
11087;DHT22;5597;47.588;9.642;2023-04-24T10:25:19;11.00;99.90
11087;DHT22;5597;47.588;9.642;2023-04-24T10:27:46;11.00;99.90
11087;DHT22;5597;47.588;9.642;2023-04-24T10:30:13;11.20;99.90
11087;DHT22;5597;47.588;9.642;2023-04-24T10:32:39;11.40;99.90
11087;DHT22;5597;47.588;9.642;2023-04-24T10:35:07;11.70;99.90
11087;DHT22;5597;47.588;9.642;2023-04-24T10:37:45;12.20;99.90
11087;DHT22;5597;47.588;9.642;2023-04-24T10:40:12;12.70;99.90
11087;DHT22;5597;47.588;9.642;2023-04-24T10:42:41;13.10;99.90
11087;DHT22;5597;47.588;9.642;2023-04-24T10:45:17;13.50;99.90
11087;DHT22;5597;47.588;9.642;2023-04-24T10:47:51;14.00;99.90
11087;DHT22;5597;47.588;9.642;2023-04-24T10:50:17;14.40;99.90
11087;DHT22;5597;47.588;9.642;2023-04-24T10:52:47;14.70;99.90
11087;DHT22;5597;47.588;9.642;2023-04-24T10:55:14;14.90;99.90
11087;DHT22;5597;47.588;9.642;2023-04-24T10:58:01;14.80;99.90
11087;DHT22;5597;47.588;9.642;2023-04-24T11:00:27;14.40;99.90
11087;DHT22;5597;47.588;9.642;2023-04-24T11:02:53;14.10;99.90
11087;DHT22;5597;47.588;9.642;2023-04-24T11:05:20;13.80;99.90
11087;DHT22;5597;47.588;9.642;2023-04-24T11:08:15;13.50;99.90
11087;DHT22;5597;47.588;9.642;2023-04-24T11:10:46;13.30;99.90
11087;DHT22;5597;47.588;9.642;2023-04-24T11:13:21;13.10;99.90
11087;DHT22;5597;47.588;9.642;2023-04-24T11:16:42;12.90;99.90
11087;DHT22;5597;47.588;9.642;2023-04-24T11:21:38;12.80;99.90
11087;DHT22;5597;47.588;9.642;2023-04-24T11:26:52;14.00;99.90
11087;DHT22;5597;47.588;9.642;2023-04-24T11:29:20;14.40;99.90
11087;DHT22;5597;47.588;9.642;2023-04-24T11:31:46;14.50;99.90
11087;DHT22;5597;47.588;9.642;2023-04-24T11:34:17;14.60;99.90
11087;DHT22;5597;47.588;9.642;2023-04-24T11:36:46;14.70;99.90
11087;DHT22;5597;47.588;9.642;2023-04-24T11:39:13;14.80;99.90
11087;DHT22;5597;47.588;9.642;2023-04-24T11:41:39;14.80;99.90
11087;DHT22;5597;47.588;9.642;2023-04-24T11:44:08;14.80;99.90
11087;DHT22;5597;47.588;9.642;2023-04-24T11:46:34;14.70;99.90
11087;DHT22;5597;47.588;9.642;2023-04-24T11:48:59;14.60;99.90
11087;DHT22;5597;47.588;9.642;2023-04-24T11:51:27;14.50;99.90
11087;DHT22;5597;47.588;9.642;2023-04-24T11:53:56;14.40;99.90
11087;DHT22;5597;47.588;9.642;2023-04-24T11:56:23;14.30;99.90
11087;DHT22;5597;47.588;9.642;2023-04-24T11:58:50;14.30;99.90
11087;DHT22;5597;47.588;9.642;2023-04-24T12:01:17;14.30;99.90
11087;DHT22;5597;47.588;9.642;2023-04-24T12:03:47;14.50;99.90
11087;DHT22;5597;47.588;9.642;2023-04-24T12:06:13;14.60;99.90
11087;DHT22;5597;47.588;9.642;2023-04-24T12:08:39;14.80;99.90
11087;DHT22;5597;47.588;9.642;2023-04-24T12:11:06;14.90;99.90
11087;DHT22;5597;47.588;9.642;2023-04-24T12:13:35;14.90;99.90
11087;DHT22;5597;47.588;9.642;2023-04-24T12:16:03;14.80;99.90
11087;DHT22;5597;47.588;9.642;2023-04-24T12:18:30;14.80;99.90
11087;DHT22;5597;47.588;9.642;2023-04-24T12:21:23;14.80;99.90
11087;DHT22;5597;47.588;9.642;2023-04-24T12:23:54;14.80;99.90
11087;DHT22;5597;47.588;9.642;2023-04-24T12:26:20;14.70;99.90
11087;DHT22;5597;47.588;9.642;2023-04-24T12:28:48;14.60;99.90
11087;DHT22;5597;47.588;9.642;2023-04-24T12:31:17;14.50;99.90
11087;DHT22;5597;47.588;9.642;2023-04-24T12:33:43;14.40;99.90
11087;DHT22;5597;47.588;9.642;2023-04-24T12:36:12;14.40;99.90
11087;DHT22;5597;47.588;9.642;2023-04-24T12:38:38;14.30;99.90
11087;DHT22;5597;47.588;9.642;2023-04-24T12:41:08;14.40;99.90
11087;DHT22;5597;47.588;9.642;2023-04-24T12:43:35;14.40;99.90
11087;DHT22;5597;47.588;9.642;2023-04-24T12:46:01;14.40;99.90
11087;DHT22;5597;47.588;9.642;2023-04-24T12:48:27;14.40;99.90
11087;DHT22;5597;47.588;9.642;2023-04-24T12:50:53;14.40;99.90
11087;DHT22;5597;47.588;9.642;2023-04-24T12:53:18;14.50;99.90
11087;DHT22;5597;47.588;9.642;2023-04-24T12:55:44;14.50;99.90
11087;DHT22;5597;47.588;9.642;2023-04-24T12:58:10;14.60;99.90
11087;DHT22;5597;47.588;9.642;2023-04-24T13:00:36;14.60;99.90
11087;DHT22;5597;47.588;9.642;2023-04-24T13:03:02;14.50;99.90
11087;DHT22;5597;47.588;9.642;2023-04-24T13:05:28;14.60;99.90
11087;DHT22;5597;47.588;9.642;2023-04-24T13:07:54;14.90;99.90
11087;DHT22;5597;47.588;9.642;2023-04-24T13:10:19;15.10;99.90
11087;DHT22;5597;47.588;9.642;2023-04-24T13:12:45;15.50;99.90
11087;DHT22;5597;47.588;9.642;2023-04-24T13:15:12;15.90;99.90
11087;DHT22;5597;47.588;9.642;2023-04-24T13:17:38;16.30;99.90
11087;DHT22;5597;47.588;9.642;2023-04-24T13:20:04;16.60;99.90
11087;DHT22;5597;47.588;9.642;2023-04-24T13:22:29;16.90;99.90
11087;DHT22;5597;47.588;9.642;2023-04-24T13:24:55;17.20;99.90
11087;DHT22;5597;47.588;9.642;2023-04-24T13:27:21;17.40;99.90
11087;DHT22;5597;47.588;9.642;2023-04-24T13:29:47;17.60;99.90
11087;DHT22;5597;47.588;9.642;2023-04-24T13:32:12;17.70;99.90
11087;DHT22;5597;47.588;9.642;2023-04-24T13:34:38;17.80;99.90
11087;DHT22;5597;47.588;9.642;2023-04-24T13:37:04;17.90;99.90
11087;DHT22;5597;47.588;9.642;2023-04-24T13:39:30;18.10;99.90
11087;DHT22;5597;47.588;9.642;2023-04-24T13:41:57;17.80;99.90
11087;DHT22;5597;47.588;9.642;2023-04-24T13:44:23;17.60;99.90
11087;DHT22;5597;47.588;9.642;2023-04-24T13:46:51;17.60;99.90
11087;DHT22;5597;47.588;9.642;2023-04-24T13:49:17;17.70;99.90
11087;DHT22;5597;47.588;9.642;2023-04-24T13:51:43;17.80;99.90
11087;DHT22;5597;47.588;9.642;2023-04-24T13:54:10;18.00;99.90
11087;DHT22;5597;47.588;9.642;2023-04-24T13:56:36;18.20;99.90
11087;DHT22;5597;47.588;9.642;2023-04-24T13:59:02;18.30;99.90
11087;DHT22;5597;47.588;9.642;2023-04-24T14:01:28;18.40;99.90
11087;DHT22;5597;47.588;9.642;2023-04-24T14:03:54;18.60;99.90
11087;DHT22;5597;47.588;9.642;2023-04-24T14:06:21;18.50;99.90
11087;DHT22;5597;47.588;9.642;2023-04-24T14:08:47;18.40;99.90
11087;DHT22;5597;47.588;9.642;2023-04-24T14:11:12;18.40;99.90
11087;DHT22;5597;47.588;9.642;2023-04-24T14:13:41;18.50;99.90
11087;DHT22;5597;47.588;9.642;2023-04-24T14:16:07;18.80;99.90
11087;DHT22;5597;47.588;9.642;2023-04-24T14:18:32;19.00;99.90
11087;DHT22;5597;47.588;9.642;2023-04-24T14:20:58;19.10;99.60
11087;DHT22;5597;47.588;9.642;2023-04-24T14:23:24;19.00;99.80
11087;DHT22;5597;47.588;9.642;2023-04-24T14:25:50;18.90;99.10
11087;DHT22;5597;47.588;9.642;2023-04-24T14:28:18;18.90;98.00
11087;DHT22;5597;47.588;9.642;2023-04-24T14:30:44;18.90;98.50
11087;DHT22;5597;47.588;9.642;2023-04-24T14:33:10;19.00;98.30
11087;DHT22;5597;47.588;9.642;2023-04-24T14:35:36;19.10;97.30
11087;DHT22;5597;47.588;9.642;2023-04-24T14:38:01;19.20;98.20
11087;DHT22;5597;47.588;9.642;2023-04-24T14:40:28;19.20;97.50
11087;DHT22;5597;47.588;9.642;2023-04-24T14:42:53;19.30;97.20
11087;DHT22;5597;47.588;9.642;2023-04-24T14:45:19;19.30;96.70
11087;DHT22;5597;47.588;9.642;2023-04-24T14:47:45;19.40;95.80
11087;DHT22;5597;47.588;9.642;2023-04-24T14:50:11;19.30;93.60
11087;DHT22;5597;47.588;9.642;2023-04-24T14:52:38;19.10;94.00
11087;DHT22;5597;47.588;9.642;2023-04-24T14:55:04;18.90;95.20
11087;DHT22;5597;47.588;9.642;2023-04-24T14:57:29;18.80;95.10
11087;DHT22;5597;47.588;9.642;2023-04-24T14:59:55;18.70;95.60
11087;DHT22;5597;47.588;9.642;2023-04-24T15:02:21;18.80;95.00
11087;DHT22;5597;47.588;9.642;2023-04-24T15:04:49;19.00;95.60
11087;DHT22;5597;47.588;9.642;2023-04-24T15:07:14;19.20;95.60
11087;DHT22;5597;47.588;9.642;2023-04-24T15:09:40;19.30;95.10
11087;DHT22;5597;47.588;9.642;2023-04-24T15:12:05;19.20;93.50
11087;DHT22;5597;47.588;9.642;2023-04-24T15:14:31;19.00;94.30
11087;DHT22;5597;47.588;9.642;2023-04-24T15:16:57;18.90;94.10
11087;DHT22;5597;47.588;9.642;2023-04-24T15:19:22;18.60;93.80
11087;DHT22;5597;47.588;9.642;2023-04-24T15:21:48;18.70;93.90
11087;DHT22;5597;47.588;9.642;2023-04-24T15:24:14;18.80;93.80
11087;DHT22;5597;47.588;9.642;2023-04-24T15:26:39;19.00;94.00
11087;DHT22;5597;47.588;9.642;2023-04-24T15:29:05;19.20;94.40
11087;DHT22;5597;47.588;9.642;2023-04-24T15:31:30;19.30;92.70
11087;DHT22;5597;47.588;9.642;2023-04-24T15:33:56;19.10;92.60
11087;DHT22;5597;47.588;9.642;2023-04-24T15:36:22;18.80;91.60
11087;DHT22;5597;47.588;9.642;2023-04-24T15:38:47;18.40;92.40
11087;DHT22;5597;47.588;9.642;2023-04-24T15:41:13;18.00;92.70
11087;DHT22;5597;47.588;9.642;2023-04-24T15:43:39;17.50;93.10
11087;DHT22;5597;47.588;9.642;2023-04-24T15:46:06;17.00;93.70
11087;DHT22;5597;47.588;9.642;2023-04-24T15:48:32;16.80;94.00
11087;DHT22;5597;47.588;9.642;2023-04-24T15:50:58;16.70;94.20
11087;DHT22;5597;47.588;9.642;2023-04-24T15:53:24;16.70;94.40
11087;DHT22;5597;47.588;9.642;2023-04-24T15:55:51;16.70;94.90